createdAt,value
2022-08-01T00:04:53.705Z,16.49
2022-08-01T00:15:29.109Z,16.49
2022-08-01T00:26:29.815Z,16.49
2022-08-01T00:37:32.335Z,16.49
2022-08-01T00:48:33.466Z,16.30
2022-08-01T00:59:34.272Z,16.20
2022-08-01T01:10:34.963Z,15.90
2022-08-01T01:21:35.563Z,15.81
2022-08-01T01:32:37.200Z,15.61
2022-08-01T01:43:37.897Z,15.42
2022-08-01T01:54:46.589Z,15.32
2022-08-01T02:05:47.047Z,15.22
2022-08-01T02:16:47.885Z,15.22
2022-08-01T02:27:45.778Z,15.51
2022-08-01T02:38:38.177Z,15.61
2022-08-01T02:49:40.575Z,15.51
2022-08-01T03:00:39.818Z,15.32
2022-08-01T03:11:38.579Z,15.22
2022-08-01T03:22:40.240Z,15.22
2022-08-01T03:33:39.185Z,15.02
2022-08-01T03:44:40.705Z,14.93
2022-08-01T03:55:46.209Z,15.02
2022-08-01T04:06:46.915Z,15.02
2022-08-01T04:17:48.230Z,15.02
2022-08-01T04:28:48.926Z,15.12
2022-08-01T04:39:51.571Z,15.22
2022-08-01T04:50:51.299Z,15.32
2022-08-01T05:01:51.960Z,15.61
2022-08-01T05:12:54.564Z,16.59
2022-08-01T05:23:56.902Z,17.37
2022-08-01T05:34:58.997Z,17.57
2022-08-01T05:46:00.539Z,17.76
2022-08-01T05:57:00.230Z,17.67
2022-08-01T06:08:01.871Z,17.86
2022-08-01T06:19:05.308Z,18.25
2022-08-01T06:30:03.010Z,18.94
2022-08-01T06:41:02.532Z,18.74
2022-08-01T06:52:03.063Z,18.64
2022-08-01T07:03:05.284Z,19.13
2022-08-01T07:14:04.446Z,19.72
2022-08-01T07:25:03.945Z,19.62
2022-08-01T07:36:06.112Z,19.82
2022-08-01T07:47:08.324Z,20.60
2022-08-01T07:58:05.200Z,21.48
2022-08-01T08:09:05.924Z,22.07
2022-08-01T08:20:04.879Z,23.05
2022-08-01T08:31:07.312Z,23.63
2022-08-01T08:42:00.535Z,24.02
2022-08-01T08:53:01.943Z,25.59
2022-08-01T09:04:04.050Z,26.86
2022-08-01T09:15:05.172Z,27.15
2022-08-01T09:26:02.877Z,27.35
2022-08-01T09:36:38.325Z,26.95
2022-08-01T09:47:38.891Z,27.15
2022-08-01T09:58:40.629Z,27.25
2022-08-01T10:09:41.302Z,28.23
2022-08-01T10:20:38.639Z,27.25
2022-08-01T10:31:32.873Z,27.15
2022-08-01T10:42:34.421Z,28.81
2022-08-01T10:53:42.794Z,29.89
2022-08-01T11:04:38.579Z,29.50
2022-08-01T11:15:37.132Z,28.23
2022-08-01T11:26:42.300Z,30.18
2022-08-01T11:37:45.640Z,32.33
2022-08-01T11:48:38.982Z,33.90
2022-08-01T11:59:50.083Z,37.91
2022-08-01T12:10:46.959Z,32.82
2022-08-01T12:21:34.865Z,34.00
2022-08-01T12:32:07.903Z,31.55
2022-08-01T12:42:52.698Z,32.14
2022-08-01T12:53:40.257Z,35.46
2022-08-01T13:04:30.262Z,35.07
2022-08-01T13:15:17.638Z,35.17
2022-08-01T13:26:01.956Z,30.38
2022-08-01T13:36:49.026Z,29.99
2022-08-01T13:48:03.368Z,29.30
2022-08-01T13:58:34.097Z,28.81
2022-08-01T14:09:32.260Z,31.06
2022-08-01T14:20:24.610Z,37.52
2022-08-01T14:31:11.706Z,38.59
2022-08-01T14:41:45.846Z,33.41
2022-08-01T14:52:36.919Z,32.43
2022-08-01T15:03:20.622Z,34.10
2022-08-01T15:14:11.586Z,30.77
2022-08-01T15:24:44.959Z,29.60
2022-08-01T15:35:21.995Z,29.69
2022-08-01T15:45:56.943Z,28.62
2022-08-01T15:56:52.693Z,27.64
2022-08-01T16:07:27.813Z,27.15
2022-08-01T16:18:17.736Z,26.66
2022-08-01T16:28:52.169Z,27.15
2022-08-01T16:39:25.263Z,26.17
2022-08-01T16:50:18.249Z,25.59
2022-08-01T17:01:58.123Z,25.49
2022-08-01T17:12:07.968Z,25.19
2022-08-01T17:23:03.873Z,24.71
2022-08-01T17:34:00.735Z,24.32
2022-08-01T17:44:54.256Z,23.83
2022-08-01T17:55:53.992Z,23.63
2022-08-01T18:06:58.440Z,23.04
2022-08-01T18:17:49.882Z,22.46
2022-08-01T18:28:46.538Z,21.97
2022-08-01T18:39:44.609Z,21.58
2022-08-01T18:50:25.736Z,21.28
2022-08-01T19:01:24.045Z,21.09
2022-08-01T19:12:23.883Z,20.79
2022-08-01T19:23:22.962Z,20.60
2022-08-01T19:34:18.662Z,20.41
2022-08-01T19:45:17.964Z,20.11
2022-08-01T19:56:13.304Z,19.82
2022-08-01T20:07:13.548Z,19.52
2022-08-01T20:18:12.444Z,19.33
2022-08-01T20:29:12.083Z,19.23
2022-08-01T20:40:12.299Z,19.13
2022-08-01T20:51:12.877Z,18.94
2022-08-01T21:02:14.225Z,18.64
2022-08-01T21:13:19.040Z,18.35
2022-08-01T21:24:18.838Z,18.15
2022-08-01T21:35:15.968Z,18.06
2022-08-01T21:46:15.968Z,17.96
2022-08-01T21:57:17.901Z,17.76
2022-08-01T22:08:16.388Z,17.67
2022-08-01T22:19:32.423Z,17.67
2022-08-01T22:30:23.474Z,17.57
2022-08-01T22:41:28.429Z,17.47
2022-08-01T22:52:24.598Z,17.37
2022-08-01T23:03:25.320Z,17.37
2022-08-01T23:14:20.538Z,17.57
2022-08-01T23:25:22.296Z,17.57
2022-08-01T23:36:23.576Z,17.47
2022-08-01T23:47:25.253Z,17.67
2022-08-01T23:58:23.828Z,17.96
